sensor_id;sensor_type;location;lat;lon;timestamp;temperature;humidity
23873;DHT22;42884;50.718;4.630;2022-09-21T00:02:13;9.50;99.90
23873;DHT22;42884;50.718;4.630;2022-09-21T00:04:39;9.50;99.90
23873;DHT22;42884;50.718;4.630;2022-09-21T00:07:04;9.50;99.90
23873;DHT22;42884;50.718;4.630;2022-09-21T00:09:30;9.50;99.90
23873;DHT22;42884;50.718;4.630;2022-09-21T00:11:55;9.50;99.90
23873;DHT22;42884;50.718;4.630;2022-09-21T00:14:21;9.40;99.90
23873;DHT22;42884;50.718;4.630;2022-09-21T00:16:46;9.40;99.90
23873;DHT22;42884;50.718;4.630;2022-09-21T00:19:12;9.40;99.90
23873;DHT22;42884;50.718;4.630;2022-09-21T00:21:38;9.30;99.90
23873;DHT22;42884;50.718;4.630;2022-09-21T00:24:04;9.30;99.90
23873;DHT22;42884;50.718;4.630;2022-09-21T00:26:30;9.30;99.90
23873;DHT22;42884;50.718;4.630;2022-09-21T00:28:57;9.30;99.90
23873;DHT22;42884;50.718;4.630;2022-09-21T00:31:23;9.30;99.90
23873;DHT22;42884;50.718;4.630;2022-09-21T00:33:49;9.20;99.90
23873;DHT22;42884;50.718;4.630;2022-09-21T00:36:19;9.20;99.90
23873;DHT22;42884;50.718;4.630;2022-09-21T00:38:48;9.20;99.90
23873;DHT22;42884;50.718;4.630;2022-09-21T00:41:13;9.10;99.90
23873;DHT22;42884;50.718;4.630;2022-09-21T00:43:44;9.10;99.90
23873;DHT22;42884;50.718;4.630;2022-09-21T00:46:14;9.10;99.90
23873;DHT22;42884;50.718;4.630;2022-09-21T00:48:40;9.10;99.90
23873;DHT22;42884;50.718;4.630;2022-09-21T00:51:07;9.00;99.90
23873;DHT22;42884;50.718;4.630;2022-09-21T00:53:33;9.00;99.90
23873;DHT22;42884;50.718;4.630;2022-09-21T00:55:59;9.00;99.90
23873;DHT22;42884;50.718;4.630;2022-09-21T00:58:30;9.00;99.90
23873;DHT22;42884;50.718;4.630;2022-09-21T01:00:57;8.90;99.90
23873;DHT22;42884;50.718;4.630;2022-09-21T01:03:24;8.90;99.90
23873;DHT22;42884;50.718;4.630;2022-09-21T01:05:49;8.80;99.90
23873;DHT22;42884;50.718;4.630;2022-09-21T01:08:15;8.80;99.90
23873;DHT22;42884;50.718;4.630;2022-09-21T01:16:02;8.80;99.90
23873;DHT22;42884;50.718;4.630;2022-09-21T01:18:34;8.70;99.90
23873;DHT22;42884;50.718;4.630;2022-09-21T01:23:48;8.70;99.90
23873;DHT22;42884;50.718;4.630;2022-09-21T01:29:32;8.60;99.90
23873;DHT22;42884;50.718;4.630;2022-09-21T01:32:06;8.60;99.90
23873;DHT22;42884;50.718;4.630;2022-09-21T01:37:42;8.60;99.90
23873;DHT22;42884;50.718;4.630;2022-09-21T01:40:11;8.60;99.90
23873;DHT22;42884;50.718;4.630;2022-09-21T01:42:38;8.60;99.90
23873;DHT22;42884;50.718;4.630;2022-09-21T01:45:05;8.60;99.90
23873;DHT22;42884;50.718;4.630;2022-09-21T01:47:31;8.60;99.90
23873;DHT22;42884;50.718;4.630;2022-09-21T01:49:58;8.50;99.90
23873;DHT22;42884;50.718;4.630;2022-09-21T01:55:12;8.50;99.90
23873;DHT22;42884;50.718;4.630;2022-09-21T01:57:42;8.40;99.90
23873;DHT22;42884;50.718;4.630;2022-09-21T02:00:10;8.40;99.90
23873;DHT22;42884;50.718;4.630;2022-09-21T02:02:37;8.40;99.90
23873;DHT22;42884;50.718;4.630;2022-09-21T02:05:04;8.40;99.90
23873;DHT22;42884;50.718;4.630;2022-09-21T02:07:31;8.40;99.90
23873;DHT22;42884;50.718;4.630;2022-09-21T02:09:57;8.40;99.90
23873;DHT22;42884;50.718;4.630;2022-09-21T02:12:22;8.30;99.90
23873;DHT22;42884;50.718;4.630;2022-09-21T02:14:48;8.30;99.90
23873;DHT22;42884;50.718;4.630;2022-09-21T02:19:48;8.20;99.90
23873;DHT22;42884;50.718;4.630;2022-09-21T02:25:05;8.20;99.90
23873;DHT22;42884;50.718;4.630;2022-09-21T02:27:40;8.20;99.90
23873;DHT22;42884;50.718;4.630;2022-09-21T02:30:08;8.20;99.90
23873;DHT22;42884;50.718;4.630;2022-09-21T02:32:47;8.20;99.90
23873;DHT22;42884;50.718;4.630;2022-09-21T02:42:47;8.10;99.90
23873;DHT22;42884;50.718;4.630;2022-09-21T02:45:25;8.00;99.90
23873;DHT22;42884;50.718;4.630;2022-09-21T02:47:53;8.00;99.90
23873;DHT22;42884;50.718;4.630;2022-09-21T02:50:22;8.00;99.90
23873;DHT22;42884;50.718;4.630;2022-09-21T02:52:49;7.90;99.90
23873;DHT22;42884;50.718;4.630;2022-09-21T02:55:16;7.90;99.90
23873;DHT22;42884;50.718;4.630;2022-09-21T02:57:42;8.00;99.90
23873;DHT22;42884;50.718;4.630;2022-09-21T03:00:08;7.90;99.90
23873;DHT22;42884;50.718;4.630;2022-09-21T03:02:34;7.90;99.90
23873;DHT22;42884;50.718;4.630;2022-09-21T03:05:00;8.00;99.90
23873;DHT22;42884;50.718;4.630;2022-09-21T03:07:26;8.00;99.90
23873;DHT22;42884;50.718;4.630;2022-09-21T03:09:51;8.00;99.90
23873;DHT22;42884;50.718;4.630;2022-09-21T03:12:17;7.90;99.90
23873;DHT22;42884;50.718;4.630;2022-09-21T03:14:42;7.90;99.90
23873;DHT22;42884;50.718;4.630;2022-09-21T03:17:08;7.90;99.90
23873;DHT22;42884;50.718;4.630;2022-09-21T03:19:34;7.80;99.90
23873;DHT22;42884;50.718;4.630;2022-09-21T03:21:59;7.80;99.90
23873;DHT22;42884;50.718;4.630;2022-09-21T03:24:25;7.80;99.90
23873;DHT22;42884;50.718;4.630;2022-09-21T03:27:09;7.80;99.90
23873;DHT22;42884;50.718;4.630;2022-09-21T03:29:35;7.80;99.90
23873;DHT22;42884;50.718;4.630;2022-09-21T03:32:00;7.80;99.90
23873;DHT22;42884;50.718;4.630;2022-09-21T03:34:26;7.80;99.90
23873;DHT22;42884;50.718;4.630;2022-09-21T03:36:51;7.70;99.90
23873;DHT22;42884;50.718;4.630;2022-09-21T03:39:17;7.70;99.90
23873;DHT22;42884;50.718;4.630;2022-09-21T03:41:42;7.70;99.90
23873;DHT22;42884;50.718;4.630;2022-09-21T03:44:09;7.70;99.90
23873;DHT22;42884;50.718;4.630;2022-09-21T03:46:35;7.70;99.90
23873;DHT22;42884;50.718;4.630;2022-09-21T03:49:00;7.70;99.90
23873;DHT22;42884;50.718;4.630;2022-09-21T03:51:27;7.70;99.90
23873;DHT22;42884;50.718;4.630;2022-09-21T03:53:55;7.60;99.90
23873;DHT22;42884;50.718;4.630;2022-09-21T03:56:21;7.60;99.90
23873;DHT22;42884;50.718;4.630;2022-09-21T03:58:47;7.60;99.90
23873;DHT22;42884;50.718;4.630;2022-09-21T04:01:12;7.60;99.90
23873;DHT22;42884;50.718;4.630;2022-09-21T04:03:38;7.60;99.90
23873;DHT22;42884;50.718;4.630;2022-09-21T04:06:10;7.60;99.90
23873;DHT22;42884;50.718;4.630;2022-09-21T04:08:36;7.50;99.90
23873;DHT22;42884;50.718;4.630;2022-09-21T04:11:08;7.50;99.90
23873;DHT22;42884;50.718;4.630;2022-09-21T04:13:33;7.50;99.90
23873;DHT22;42884;50.718;4.630;2022-09-21T04:16:00;7.50;99.90
23873;DHT22;42884;50.718;4.630;2022-09-21T04:18:26;7.50;99.90
23873;DHT22;42884;50.718;4.630;2022-09-21T04:20:52;7.40;99.90
23873;DHT22;42884;50.718;4.630;2022-09-21T04:23:17;7.40;99.90
23873;DHT22;42884;50.718;4.630;2022-09-21T04:25:45;7.40;99.90
23873;DHT22;42884;50.718;4.630;2022-09-21T04:28:11;7.40;99.90
23873;DHT22;42884;50.718;4.630;2022-09-21T04:30:37;7.30;99.90
23873;DHT22;42884;50.718;4.630;2022-09-21T04:33:02;7.30;99.90
23873;DHT22;42884;50.718;4.630;2022-09-21T04:35:28;7.40;99.90
23873;DHT22;42884;50.718;4.630;2022-09-21T04:37:54;7.30;99.90
23873;DHT22;42884;50.718;4.630;2022-09-21T04:40:20;7.30;99.90
23873;DHT22;42884;50.718;4.630;2022-09-21T04:42:51;7.30;99.90
23873;DHT22;42884;50.718;4.630;2022-09-21T04:45:17;7.30;99.90
23873;DHT22;42884;50.718;4.630;2022-09-21T04:47:42;7.30;99.90
23873;DHT22;42884;50.718;4.630;2022-09-21T04:50:08;7.20;99.90
23873;DHT22;42884;50.718;4.630;2022-09-21T04:52:34;7.20;99.90
23873;DHT22;42884;50.718;4.630;2022-09-21T04:54:59;7.20;99.90
23873;DHT22;42884;50.718;4.630;2022-09-21T04:57:25;7.20;99.90
23873;DHT22;42884;50.718;4.630;2022-09-21T04:59:50;7.20;99.90
23873;DHT22;42884;50.718;4.630;2022-09-21T05:02:16;7.20;99.90
23873;DHT22;42884;50.718;4.630;2022-09-21T05:04:41;7.20;99.90
23873;DHT22;42884;50.718;4.630;2022-09-21T05:07:07;7.20;99.90
23873;DHT22;42884;50.718;4.630;2022-09-21T05:09:32;7.20;99.90
23873;DHT22;42884;50.718;4.630;2022-09-21T05:12:16;7.10;99.90
23873;DHT22;42884;50.718;4.630;2022-09-21T05:14:42;7.10;99.90
23873;DHT22;42884;50.718;4.630;2022-09-21T05:17:09;7.20;99.90
23873;DHT22;42884;50.718;4.630;2022-09-21T05:19:35;7.10;99.90
23873;DHT22;42884;50.718;4.630;2022-09-21T05:22:01;7.10;99.90
23873;DHT22;42884;50.718;4.630;2022-09-21T05:24:26;7.10;99.90
23873;DHT22;42884;50.718;4.630;2022-09-21T05:26:52;7.10;99.90
23873;DHT22;42884;50.718;4.630;2022-09-21T05:29:17;7.10;99.90
23873;DHT22;42884;50.718;4.630;2022-09-21T05:32:02;7.10;99.90
23873;DHT22;42884;50.718;4.630;2022-09-21T05:37:16;7.10;99.90
23873;DHT22;42884;50.718;4.630;2022-09-21T05:39:44;7.00;99.90
23873;DHT22;42884;50.718;4.630;2022-09-21T05:42:10;7.10;99.90
23873;DHT22;42884;50.718;4.630;2022-09-21T05:44:36;7.20;99.90
23873;DHT22;42884;50.718;4.630;2022-09-21T05:47:20;7.20;99.90
23873;DHT22;42884;50.718;4.630;2022-09-21T05:50:05;7.20;99.90
23873;DHT22;42884;50.718;4.630;2022-09-21T05:52:40;7.10;99.90
23873;DHT22;42884;50.718;4.630;2022-09-21T06:01:19;7.30;99.90
23873;DHT22;42884;50.718;4.630;2022-09-21T06:05:47;7.30;99.90
23873;DHT22;42884;50.718;4.630;2022-09-21T06:08:12;7.40;99.90
23873;DHT22;42884;50.718;4.630;2022-09-21T06:10:38;7.50;99.90
23873;DHT22;42884;50.718;4.630;2022-09-21T06:13:04;7.50;99.90
23873;DHT22;42884;50.718;4.630;2022-09-21T06:15:29;7.60;99.90
23873;DHT22;42884;50.718;4.630;2022-09-21T06:17:56;7.70;99.90
23873;DHT22;42884;50.718;4.630;2022-09-21T06:20:22;7.70;99.90
23873;DHT22;42884;50.718;4.630;2022-09-21T06:22:49;7.80;99.90
23873;DHT22;42884;50.718;4.630;2022-09-21T06:25:14;7.90;99.90
23873;DHT22;42884;50.718;4.630;2022-09-21T06:27:40;7.90;99.90
23873;DHT22;42884;50.718;4.630;2022-09-21T06:30:06;8.00;99.90
23873;DHT22;42884;50.718;4.630;2022-09-21T06:32:31;8.10;99.90
23873;DHT22;42884;50.718;4.630;2022-09-21T06:34:57;8.20;99.90
23873;DHT22;42884;50.718;4.630;2022-09-21T06:37:22;8.30;99.90
23873;DHT22;42884;50.718;4.630;2022-09-21T06:39:48;8.40;99.90
23873;DHT22;42884;50.718;4.630;2022-09-21T06:42:13;8.50;99.90
23873;DHT22;42884;50.718;4.630;2022-09-21T06:44:39;8.70;99.90
23873;DHT22;42884;50.718;4.630;2022-09-21T06:47:04;8.80;99.90
23873;DHT22;42884;50.718;4.630;2022-09-21T06:49:30;8.90;99.90
23873;DHT22;42884;50.718;4.630;2022-09-21T06:51:56;9.00;99.90
23873;DHT22;42884;50.718;4.630;2022-09-21T06:54:22;9.20;99.90
23873;DHT22;42884;50.718;4.630;2022-09-21T06:56:48;9.20;99.90
23873;DHT22;42884;50.718;4.630;2022-09-21T06:59:14;9.30;99.90
23873;DHT22;42884;50.718;4.630;2022-09-21T07:01:39;9.40;99.90
23873;DHT22;42884;50.718;4.630;2022-09-21T07:04:05;9.40;99.90
23873;DHT22;42884;50.718;4.630;2022-09-21T07:06:33;9.50;99.90
23873;DHT22;42884;50.718;4.630;2022-09-21T07:08:59;9.70;99.90
23873;DHT22;42884;50.718;4.630;2022-09-21T07:11:29;9.70;99.90
23873;DHT22;42884;50.718;4.630;2022-09-21T07:13:54;9.90;99.90
23873;DHT22;42884;50.718;4.630;2022-09-21T07:16:20;10.00;99.90
23873;DHT22;42884;50.718;4.630;2022-09-21T07:18:46;10.10;99.90
23873;DHT22;42884;50.718;4.630;2022-09-21T07:21:13;10.20;99.90
23873;DHT22;42884;50.718;4.630;2022-09-21T07:23:39;10.30;99.90
23873;DHT22;42884;50.718;4.630;2022-09-21T07:26:06;10.40;99.90
23873;DHT22;42884;50.718;4.630;2022-09-21T07:28:31;10.50;99.90
23873;DHT22;42884;50.718;4.630;2022-09-21T07:30:57;10.60;99.90
23873;DHT22;42884;50.718;4.630;2022-09-21T07:33:24;10.80;99.90
23873;DHT22;42884;50.718;4.630;2022-09-21T07:35:50;10.90;99.90
23873;DHT22;42884;50.718;4.630;2022-09-21T07:38:15;11.00;99.90
23873;DHT22;42884;50.718;4.630;2022-09-21T07:40:41;11.10;99.90
23873;DHT22;42884;50.718;4.630;2022-09-21T07:43:06;11.20;99.90
23873;DHT22;42884;50.718;4.630;2022-09-21T07:45:32;11.30;99.90
23873;DHT22;42884;50.718;4.630;2022-09-21T07:48:05;11.40;99.90
23873;DHT22;42884;50.718;4.630;2022-09-21T07:50:31;11.50;99.90
23873;DHT22;42884;50.718;4.630;2022-09-21T07:52:58;11.60;99.90
23873;DHT22;42884;50.718;4.630;2022-09-21T07:55:23;11.50;99.90
23873;DHT22;42884;50.718;4.630;2022-09-21T07:57:49;11.40;99.90
23873;DHT22;42884;50.718;4.630;2022-09-21T08:00:34;11.50;99.90
23873;DHT22;42884;50.718;4.630;2022-09-21T08:03:00;11.80;99.90
23873;DHT22;42884;50.718;4.630;2022-09-21T08:05:25;12.10;99.90
23873;DHT22;42884;50.718;4.630;2022-09-21T08:07:54;12.20;99.90
23873;DHT22;42884;50.718;4.630;2022-09-21T08:10:19;12.40;99.90
23873;DHT22;42884;50.718;4.630;2022-09-21T08:12:45;12.50;99.90
23873;DHT22;42884;50.718;4.630;2022-09-21T08:15:11;12.70;99.90
23873;DHT22;42884;50.718;4.630;2022-09-21T08:17:39;12.90;99.90
23873;DHT22;42884;50.718;4.630;2022-09-21T08:20:04;13.20;99.90
23873;DHT22;42884;50.718;4.630;2022-09-21T08:22:30;13.40;99.90
23873;DHT22;42884;50.718;4.630;2022-09-21T08:24:55;13.60;99.90
23873;DHT22;42884;50.718;4.630;2022-09-21T08:27:21;13.60;99.90
23873;DHT22;42884;50.718;4.630;2022-09-21T08:29:49;14.00;99.90
23873;DHT22;42884;50.718;4.630;2022-09-21T08:32:14;14.50;99.90
23873;DHT22;42884;50.718;4.630;2022-09-21T08:34:40;15.00;99.90
23873;DHT22;42884;50.718;4.630;2022-09-21T08:37:05;15.60;99.90
23873;DHT22;42884;50.718;4.630;2022-09-21T08:39:31;16.30;99.90
23873;DHT22;42884;50.718;4.630;2022-09-21T08:44:39;17.80;99.90
23873;DHT22;42884;50.718;4.630;2022-09-21T08:47:17;18.70;99.90
23873;DHT22;42884;50.718;4.630;2022-09-21T08:49:45;19.60;99.90
23873;DHT22;42884;50.718;4.630;2022-09-21T08:52:12;20.60;99.90
23873;DHT22;42884;50.718;4.630;2022-09-21T08:54:50;21.60;99.90
23873;DHT22;42884;50.718;4.630;2022-09-21T08:57:18;22.40;99.90
23873;DHT22;42884;50.718;4.630;2022-09-21T08:59:44;23.20;99.90
23873;DHT22;42884;50.718;4.630;2022-09-21T09:02:31;23.90;99.90
23873;DHT22;42884;50.718;4.630;2022-09-21T09:10:19;25.60;99.90
23873;DHT22;42884;50.718;4.630;2022-09-21T09:15:16;26.50;99.90
23873;DHT22;42884;50.718;4.630;2022-09-21T09:22:43;27.70;97.50
23873;DHT22;42884;50.718;4.630;2022-09-21T09:25:22;27.70;99.20
23873;DHT22;42884;50.718;4.630;2022-09-21T09:27:55;28.20;98.10
23873;DHT22;42884;50.718;4.630;2022-09-21T09:30:24;28.70;97.20
23873;DHT22;42884;50.718;4.630;2022-09-21T09:35:20;28.90;95.90
23873;DHT22;42884;50.718;4.630;2022-09-21T09:37:46;28.90;94.90
23873;DHT22;42884;50.718;4.630;2022-09-21T09:40:13;29.30;94.70
23873;DHT22;42884;50.718;4.630;2022-09-21T09:45:31;28.80;92.50
23873;DHT22;42884;50.718;4.630;2022-09-21T09:50:36;29.50;92.10
23873;DHT22;42884;50.718;4.630;2022-09-21T09:53:08;29.30;91.60
23873;DHT22;42884;50.718;4.630;2022-09-21T09:55:36;29.10;90.90
23873;DHT22;42884;50.718;4.630;2022-09-21T09:58:02;29.50;94.00
23873;DHT22;42884;50.718;4.630;2022-09-21T10:00:28;29.90;91.00
23873;DHT22;42884;50.718;4.630;2022-09-21T10:02:54;30.20;91.10
23873;DHT22;42884;50.718;4.630;2022-09-21T10:07:46;30.20;91.40
23873;DHT22;42884;50.718;4.630;2022-09-21T10:10:22;30.40;88.60
23873;DHT22;42884;50.718;4.630;2022-09-21T10:12:48;30.80;90.70
23873;DHT22;42884;50.718;4.630;2022-09-21T10:15:15;30.90;89.90
23873;DHT22;42884;50.718;4.630;2022-09-21T10:17:41;30.80;88.30
23873;DHT22;42884;50.718;4.630;2022-09-21T10:20:13;31.00;88.60
23873;DHT22;42884;50.718;4.630;2022-09-21T10:22:45;30.70;87.20
23873;DHT22;42884;50.718;4.630;2022-09-21T10:25:15;30.40;89.90
23873;DHT22;42884;50.718;4.630;2022-09-21T10:27:41;30.50;88.10
23873;DHT22;42884;50.718;4.630;2022-09-21T10:33:14;30.30;84.10
23873;DHT22;42884;50.718;4.630;2022-09-21T10:35:47;30.20;82.20
23873;DHT22;42884;50.718;4.630;2022-09-21T10:38:17;28.40;80.40
23873;DHT22;42884;50.718;4.630;2022-09-21T10:40:43;27.70;86.10
23873;DHT22;42884;50.718;4.630;2022-09-21T10:43:32;28.20;87.10
23873;DHT22;42884;50.718;4.630;2022-09-21T10:45:59;28.50;85.70
23873;DHT22;42884;50.718;4.630;2022-09-21T10:48:25;28.60;84.40
23873;DHT22;42884;50.718;4.630;2022-09-21T10:50:51;28.70;85.40
23873;DHT22;42884;50.718;4.630;2022-09-21T10:53:30;28.90;86.80
23873;DHT22;42884;50.718;4.630;2022-09-21T10:55:57;29.10;86.00
23873;DHT22;42884;50.718;4.630;2022-09-21T10:58:25;29.00;85.30
23873;DHT22;42884;50.718;4.630;2022-09-21T11:00:51;28.60;85.00
23873;DHT22;42884;50.718;4.630;2022-09-21T11:05:55;27.70;85.40
23873;DHT22;42884;50.718;4.630;2022-09-21T11:08:34;26.90;89.30
23873;DHT22;42884;50.718;4.630;2022-09-21T11:11:23;26.20;90.30
23873;DHT22;42884;50.718;4.630;2022-09-21T11:16:25;24.30;92.30
23873;DHT22;42884;50.718;4.630;2022-09-21T11:24:23;22.50;95.70
23873;DHT22;42884;50.718;4.630;2022-09-21T11:27:06;22.40;96.70
23873;DHT22;42884;50.718;4.630;2022-09-21T11:33:20;22.40;96.80
23873;DHT22;42884;50.718;4.630;2022-09-21T11:45:27;21.90;97.10
23873;DHT22;42884;50.718;4.630;2022-09-21T11:56:01;21.60;96.40
23873;DHT22;42884;50.718;4.630;2022-09-21T11:58:37;21.70;99.00
23873;DHT22;42884;50.718;4.630;2022-09-21T12:04:09;23.20;96.50
23873;DHT22;42884;50.718;4.630;2022-09-21T12:12:18;23.80;94.00
23873;DHT22;42884;50.718;4.630;2022-09-21T12:17:36;24.40;93.60
23873;DHT22;42884;50.718;4.630;2022-09-21T12:22:31;24.90;90.80
23873;DHT22;42884;50.718;4.630;2022-09-21T12:25:01;24.70;92.30
23873;DHT22;42884;50.718;4.630;2022-09-21T12:27:30;24.60;92.80
23873;DHT22;42884;50.718;4.630;2022-09-21T12:30:02;24.40;93.10
23873;DHT22;42884;50.718;4.630;2022-09-21T12:35:11;23.90;92.40
23873;DHT22;42884;50.718;4.630;2022-09-21T12:37:45;23.70;92.80
23873;DHT22;42884;50.718;4.630;2022-09-21T12:40:27;23.40;92.50
23873;DHT22;42884;50.718;4.630;2022-09-21T12:43:02;23.10;92.90
23873;DHT22;42884;50.718;4.630;2022-09-21T12:46:04;23.00;95.20
23873;DHT22;42884;50.718;4.630;2022-09-21T12:48:39;23.00;94.60
23873;DHT22;42884;50.718;4.630;2022-09-21T12:53:37;22.90;94.10
23873;DHT22;42884;50.718;4.630;2022-09-21T13:01:58;22.20;93.90
23873;DHT22;42884;50.718;4.630;2022-09-21T13:04:32;22.20;94.50
23873;DHT22;42884;50.718;4.630;2022-09-21T13:09:44;21.80;94.60
23873;DHT22;42884;50.718;4.630;2022-09-21T13:12:18;21.50;97.00
23873;DHT22;42884;50.718;4.630;2022-09-21T13:14:48;21.40;97.50
23873;DHT22;42884;50.718;4.630;2022-09-21T13:19:54;21.70;97.10
23873;DHT22;42884;50.718;4.630;2022-09-21T13:24:46;22.10;93.30
23873;DHT22;42884;50.718;4.630;2022-09-21T13:27:54;22.00;91.90
23873;DHT22;42884;50.718;4.630;2022-09-21T13:32:54;22.70;91.40
23873;DHT22;42884;50.718;4.630;2022-09-21T13:35:51;23.20;96.00
23873;DHT22;42884;50.718;4.630;2022-09-21T13:38:29;23.50;92.30
23873;DHT22;42884;50.718;4.630;2022-09-21T13:41:02;23.80;92.00
23873;DHT22;42884;50.718;4.630;2022-09-21T13:43:48;24.10;91.50
23873;DHT22;42884;50.718;4.630;2022-09-21T13:49:21;25.50;86.00
23873;DHT22;42884;50.718;4.630;2022-09-21T13:54:14;26.00;90.70
23873;DHT22;42884;50.718;4.630;2022-09-21T13:56:39;26.60;85.30
23873;DHT22;42884;50.718;4.630;2022-09-21T13:59:11;26.80;89.40
23873;DHT22;42884;50.718;4.630;2022-09-21T14:01:44;27.20;85.60
23873;DHT22;42884;50.718;4.630;2022-09-21T14:04:19;27.30;85.60
23873;DHT22;42884;50.718;4.630;2022-09-21T14:06:46;27.00;86.10
23873;DHT22;42884;50.718;4.630;2022-09-21T14:09:18;27.10;82.20
23873;DHT22;42884;50.718;4.630;2022-09-21T14:11:46;26.80;79.90
23873;DHT22;42884;50.718;4.630;2022-09-21T14:16:51;26.40;82.60
23873;DHT22;42884;50.718;4.630;2022-09-21T14:24:37;25.30;85.80
23873;DHT22;42884;50.718;4.630;2022-09-21T14:27:05;24.80;87.00
23873;DHT22;42884;50.718;4.630;2022-09-21T14:29:49;24.30;86.20
23873;DHT22;42884;50.718;4.630;2022-09-21T14:32:34;23.60;88.30
23873;DHT22;42884;50.718;4.630;2022-09-21T14:35:10;23.40;88.50
23873;DHT22;42884;50.718;4.630;2022-09-21T14:37:38;23.60;87.90
23873;DHT22;42884;50.718;4.630;2022-09-21T14:40:24;23.50;84.00
23873;DHT22;42884;50.718;4.630;2022-09-21T14:42:54;23.80;89.40
23873;DHT22;42884;50.718;4.630;2022-09-21T14:45:32;24.10;85.80
23873;DHT22;42884;50.718;4.630;2022-09-21T14:48:07;23.90;78.90
23873;DHT22;42884;50.718;4.630;2022-09-21T14:50:36;22.70;78.90
23873;DHT22;42884;50.718;4.630;2022-09-21T14:58:22;23.40;89.30
23873;DHT22;42884;50.718;4.630;2022-09-21T15:00:52;23.80;89.90
23873;DHT22;42884;50.718;4.630;2022-09-21T15:06:00;22.80;81.40
23873;DHT22;42884;50.718;4.630;2022-09-21T15:08:53;22.90;81.00
23873;DHT22;42884;50.718;4.630;2022-09-21T15:11:41;23.00;88.30
23873;DHT22;42884;50.718;4.630;2022-09-21T15:14:15;23.30;82.10
23873;DHT22;42884;50.718;4.630;2022-09-21T15:16:45;23.40;82.40
23873;DHT22;42884;50.718;4.630;2022-09-21T15:19:19;23.30;82.90
23873;DHT22;42884;50.718;4.630;2022-09-21T15:21:49;23.00;85.00
23873;DHT22;42884;50.718;4.630;2022-09-21T15:24:29;23.00;84.70
23873;DHT22;42884;50.718;4.630;2022-09-21T15:27:06;23.00;85.00
23873;DHT22;42884;50.718;4.630;2022-09-21T15:29:34;22.80;83.40
23873;DHT22;42884;50.718;4.630;2022-09-21T15:32:00;22.30;86.20
23873;DHT22;42884;50.718;4.630;2022-09-21T15:34:26;22.00;84.30
23873;DHT22;42884;50.718;4.630;2022-09-21T15:36:52;22.00;85.60
23873;DHT22;42884;50.718;4.630;2022-09-21T15:39:28;22.00;92.40
23873;DHT22;42884;50.718;4.630;2022-09-21T15:42:00;21.90;90.70
23873;DHT22;42884;50.718;4.630;2022-09-21T15:44:33;21.90;87.50
23873;DHT22;42884;50.718;4.630;2022-09-21T15:47:01;21.90;89.60
23873;DHT22;42884;50.718;4.630;2022-09-21T15:49:27;21.70;88.50
23873;DHT22;42884;50.718;4.630;2022-09-21T15:56:48;21.30;91.30
23873;DHT22;42884;50.718;4.630;2022-09-21T15:59:15;20.90;90.80
23873;DHT22;42884;50.718;4.630;2022-09-21T16:01:49;20.70;90.50
23873;DHT22;42884;50.718;4.630;2022-09-21T16:04:18;20.50;91.30
23873;DHT22;42884;50.718;4.630;2022-09-21T16:07:05;20.10;90.90
23873;DHT22;42884;50.718;4.630;2022-09-21T16:09:38;20.00;92.00
23873;DHT22;42884;50.718;4.630;2022-09-21T16:14:48;19.90;93.10
23873;DHT22;42884;50.718;4.630;2022-09-21T16:17:22;19.90;91.80
23873;DHT22;42884;50.718;4.630;2022-09-21T16:22:17;19.80;92.70
23873;DHT22;42884;50.718;4.630;2022-09-21T16:24:44;19.80;92.30
23873;DHT22;42884;50.718;4.630;2022-09-21T16:27:18;19.80;93.40
23873;DHT22;42884;50.718;4.630;2022-09-21T16:29:44;19.80;93.20
23873;DHT22;42884;50.718;4.630;2022-09-21T16:34:42;19.80;94.00
23873;DHT22;42884;50.718;4.630;2022-09-21T16:39:50;19.80;94.40
23873;DHT22;42884;50.718;4.630;2022-09-21T16:42:17;19.90;95.60
23873;DHT22;42884;50.718;4.630;2022-09-21T16:44:43;19.90;96.90
23873;DHT22;42884;50.718;4.630;2022-09-21T16:47:13;20.00;97.20
23873;DHT22;42884;50.718;4.630;2022-09-21T16:49:39;20.10;99.00
23873;DHT22;42884;50.718;4.630;2022-09-21T16:52:05;20.10;97.80
23873;DHT22;42884;50.718;4.630;2022-09-21T16:54:32;19.90;98.00
23873;DHT22;42884;50.718;4.630;2022-09-21T16:56:59;19.70;99.20
23873;DHT22;42884;50.718;4.630;2022-09-21T16:59:25;19.30;98.70
23873;DHT22;42884;50.718;4.630;2022-09-21T17:01:51;19.20;99.40
23873;DHT22;42884;50.718;4.630;2022-09-21T17:04:18;19.10;99.90
23873;DHT22;42884;50.718;4.630;2022-09-21T17:06:44;18.80;99.90
23873;DHT22;42884;50.718;4.630;2022-09-21T17:09:20;18.60;99.90
23873;DHT22;42884;50.718;4.630;2022-09-21T17:11:46;18.50;99.90
23873;DHT22;42884;50.718;4.630;2022-09-21T17:14:13;18.40;99.90
23873;DHT22;42884;50.718;4.630;2022-09-21T17:16:47;18.30;99.90
23873;DHT22;42884;50.718;4.630;2022-09-21T17:19:13;18.10;99.90
23873;DHT22;42884;50.718;4.630;2022-09-21T17:21:39;17.90;99.90
23873;DHT22;42884;50.718;4.630;2022-09-21T17:24:05;17.70;99.90
23873;DHT22;42884;50.718;4.630;2022-09-21T17:26:31;17.50;99.90
23873;DHT22;42884;50.718;4.630;2022-09-21T17:28:58;17.40;99.90
23873;DHT22;42884;50.718;4.630;2022-09-21T17:31:24;17.20;99.90
23873;DHT22;42884;50.718;4.630;2022-09-21T17:33:49;17.10;99.90
23873;DHT22;42884;50.718;4.630;2022-09-21T17:36:16;17.00;99.90
23873;DHT22;42884;50.718;4.630;2022-09-21T17:38:42;16.80;99.90
23873;DHT22;42884;50.718;4.630;2022-09-21T17:41:31;16.60;99.90
23873;DHT22;42884;50.718;4.630;2022-09-21T17:44:06;16.50;99.90
23873;DHT22;42884;50.718;4.630;2022-09-21T17:49:07;16.20;99.90
23873;DHT22;42884;50.718;4.630;2022-09-21T17:51:33;16.00;99.90
23873;DHT22;42884;50.718;4.630;2022-09-21T17:54:17;15.90;99.90
23873;DHT22;42884;50.718;4.630;2022-09-21T17:56:47;15.70;99.90
23873;DHT22;42884;50.718;4.630;2022-09-21T18:01:46;15.50;99.90
23873;DHT22;42884;50.718;4.630;2022-09-21T18:04:12;15.30;99.90
23873;DHT22;42884;50.718;4.630;2022-09-21T18:06:38;15.20;99.90
23873;DHT22;42884;50.718;4.630;2022-09-21T18:09:04;15.10;99.90
23873;DHT22;42884;50.718;4.630;2022-09-21T18:11:45;15.00;99.90
23873;DHT22;42884;50.718;4.630;2022-09-21T18:24:37;14.50;99.90
23873;DHT22;42884;50.718;4.630;2022-09-21T18:27:03;14.40;99.90
23873;DHT22;42884;50.718;4.630;2022-09-21T18:29:30;14.30;99.90
23873;DHT22;42884;50.718;4.630;2022-09-21T18:40:02;13.90;99.90
23873;DHT22;42884;50.718;4.630;2022-09-21T18:43:17;13.80;99.90
23873;DHT22;42884;50.718;4.630;2022-09-21T18:45:17;13.70;99.90
23873;DHT22;42884;50.718;4.630;2022-09-21T18:53:07;13.50;99.90
23873;DHT22;42884;50.718;4.630;2022-09-21T18:55:37;13.40;99.90
23873;DHT22;42884;50.718;4.630;2022-09-21T18:58:02;13.30;99.90
23873;DHT22;42884;50.718;4.630;2022-09-21T19:00:29;13.20;99.90
23873;DHT22;42884;50.718;4.630;2022-09-21T19:03:00;13.10;99.90
23873;DHT22;42884;50.718;4.630;2022-09-21T19:05:26;13.10;99.90
23873;DHT22;42884;50.718;4.630;2022-09-21T19:07:56;13.10;99.90
23873;DHT22;42884;50.718;4.630;2022-09-21T19:10:26;12.90;99.90
23873;DHT22;42884;50.718;4.630;2022-09-21T19:12:56;12.90;99.90